sensor_id;sensor_type;location;lat;lon;timestamp;temperature;humidity
24103;DHT22;12278;53.058;9.028;2022-09-09T00:06:04;14.80;99.90
24103;DHT22;12278;53.058;9.028;2022-09-09T00:10:26;14.80;99.90
24103;DHT22;12278;53.058;9.028;2022-09-09T00:14:46;14.80;99.90
24103;DHT22;12278;53.058;9.028;2022-09-09T00:19:03;14.80;99.90
24103;DHT22;12278;53.058;9.028;2022-09-09T00:27:27;14.80;99.90
24103;DHT22;12278;53.058;9.028;2022-09-09T00:31:32;14.70;99.90
24103;DHT22;12278;53.058;9.028;2022-09-09T00:35:44;14.70;99.90
24103;DHT22;12278;53.058;9.028;2022-09-09T00:39:48;14.70;99.90
24103;DHT22;12278;53.058;9.028;2022-09-09T00:44:30;14.70;99.90
24103;DHT22;12278;53.058;9.028;2022-09-09T00:57:35;14.80;99.90
24103;DHT22;12278;53.058;9.028;2022-09-09T01:01:37;14.80;99.90
24103;DHT22;12278;53.058;9.028;2022-09-09T01:10:35;14.70;99.90
24103;DHT22;12278;53.058;9.028;2022-09-09T01:14:40;14.60;99.90
24103;DHT22;12278;53.058;9.028;2022-09-09T01:18:47;14.60;99.90
24103;DHT22;12278;53.058;9.028;2022-09-09T01:27:18;14.50;99.90
24103;DHT22;12278;53.058;9.028;2022-09-09T01:31:34;14.50;99.90
24103;DHT22;12278;53.058;9.028;2022-09-09T01:35:48;14.50;99.90
24103;DHT22;12278;53.058;9.028;2022-09-09T01:40:01;14.50;99.90
24103;DHT22;12278;53.058;9.028;2022-09-09T01:44:03;14.40;99.90
24103;DHT22;12278;53.058;9.028;2022-09-09T01:48:04;14.40;99.90
24103;DHT22;12278;53.058;9.028;2022-09-09T01:52:04;14.40;99.90
24103;DHT22;12278;53.058;9.028;2022-09-09T01:56:35;14.30;99.90
24103;DHT22;12278;53.058;9.028;2022-09-09T02:05:38;14.30;99.90
24103;DHT22;12278;53.058;9.028;2022-09-09T02:09:43;14.30;99.90
24103;DHT22;12278;53.058;9.028;2022-09-09T02:23:06;14.20;99.90
24103;DHT22;12278;53.058;9.028;2022-09-09T02:27:09;14.10;99.90
24103;DHT22;12278;53.058;9.028;2022-09-09T02:31:11;14.10;99.90
24103;DHT22;12278;53.058;9.028;2022-09-09T02:35:19;14.10;99.90
24103;DHT22;12278;53.058;9.028;2022-09-09T02:39:23;14.10;99.90
24103;DHT22;12278;53.058;9.028;2022-09-09T02:43:24;14.10;99.90
24103;DHT22;12278;53.058;9.028;2022-09-09T02:47:37;14.10;99.90
24103;DHT22;12278;53.058;9.028;2022-09-09T02:56:04;14.00;99.90
24103;DHT22;12278;53.058;9.028;2022-09-09T03:00:10;14.00;99.90
24103;DHT22;12278;53.058;9.028;2022-09-09T03:04:12;14.00;99.90
24103;DHT22;12278;53.058;9.028;2022-09-09T03:08:13;13.90;99.90
24103;DHT22;12278;53.058;9.028;2022-09-09T03:12:14;14.00;99.90
24103;DHT22;12278;53.058;9.028;2022-09-09T03:16:15;14.00;99.90
24103;DHT22;12278;53.058;9.028;2022-09-09T03:20:17;14.00;99.90
24103;DHT22;12278;53.058;9.028;2022-09-09T03:24:19;14.00;99.90
24103;DHT22;12278;53.058;9.028;2022-09-09T03:28:20;14.00;99.90
24103;DHT22;12278;53.058;9.028;2022-09-09T03:32:21;14.10;99.90
24103;DHT22;12278;53.058;9.028;2022-09-09T03:36:26;14.10;99.90
24103;DHT22;12278;53.058;9.028;2022-09-09T03:40:27;14.20;99.90
24103;DHT22;12278;53.058;9.028;2022-09-09T03:44:29;14.20;99.90
24103;DHT22;12278;53.058;9.028;2022-09-09T03:48:30;14.20;99.90
24103;DHT22;12278;53.058;9.028;2022-09-09T03:52:31;14.20;99.90
24103;DHT22;12278;53.058;9.028;2022-09-09T03:56:32;14.20;99.90
24103;DHT22;12278;53.058;9.028;2022-09-09T04:00:32;14.30;99.90
24103;DHT22;12278;53.058;9.028;2022-09-09T04:04:33;14.30;99.90
24103;DHT22;12278;53.058;9.028;2022-09-09T04:08:34;14.30;99.90
24103;DHT22;12278;53.058;9.028;2022-09-09T04:12:42;14.20;99.90
24103;DHT22;12278;53.058;9.028;2022-09-09T04:16:42;14.20;99.90
24103;DHT22;12278;53.058;9.028;2022-09-09T04:20:51;14.20;99.90
24103;DHT22;12278;53.058;9.028;2022-09-09T04:24:54;14.20;99.90
24103;DHT22;12278;53.058;9.028;2022-09-09T04:28:55;14.20;99.90
24103;DHT22;12278;53.058;9.028;2022-09-09T04:32:56;14.20;99.90
24103;DHT22;12278;53.058;9.028;2022-09-09T04:36:57;14.20;99.90
24103;DHT22;12278;53.058;9.028;2022-09-09T04:40:59;14.20;99.90
24103;DHT22;12278;53.058;9.028;2022-09-09T04:44:59;14.20;99.90
24103;DHT22;12278;53.058;9.028;2022-09-09T04:49:00;14.30;99.90
24103;DHT22;12278;53.058;9.028;2022-09-09T04:53:02;14.30;99.90
24103;DHT22;12278;53.058;9.028;2022-09-09T04:57:05;14.30;99.90
24103;DHT22;12278;53.058;9.028;2022-09-09T05:01:10;14.30;99.90
24103;DHT22;12278;53.058;9.028;2022-09-09T05:05:24;14.40;99.90
24103;DHT22;12278;53.058;9.028;2022-09-09T05:09:26;14.40;99.90
24103;DHT22;12278;53.058;9.028;2022-09-09T05:13:27;14.40;99.90
24103;DHT22;12278;53.058;9.028;2022-09-09T05:17:28;14.40;99.90
24103;DHT22;12278;53.058;9.028;2022-09-09T05:21:30;14.40;99.90
24103;DHT22;12278;53.058;9.028;2022-09-09T05:25:31;14.30;99.90
24103;DHT22;12278;53.058;9.028;2022-09-09T05:29:33;14.30;99.90
24103;DHT22;12278;53.058;9.028;2022-09-09T05:33:35;14.30;99.90
24103;DHT22;12278;53.058;9.028;2022-09-09T05:37:36;14.40;99.90
24103;DHT22;12278;53.058;9.028;2022-09-09T05:41:37;14.40;99.90
24103;DHT22;12278;53.058;9.028;2022-09-09T05:45:37;14.40;99.90
24103;DHT22;12278;53.058;9.028;2022-09-09T05:49:38;14.40;99.90
24103;DHT22;12278;53.058;9.028;2022-09-09T05:53:39;14.40;99.90
24103;DHT22;12278;53.058;9.028;2022-09-09T05:57:40;14.50;99.90
24103;DHT22;12278;53.058;9.028;2022-09-09T06:01:40;14.60;99.90
24103;DHT22;12278;53.058;9.028;2022-09-09T06:05:42;14.50;99.90
24103;DHT22;12278;53.058;9.028;2022-09-09T06:09:43;14.50;99.90
24103;DHT22;12278;53.058;9.028;2022-09-09T06:13:43;14.60;99.90
24103;DHT22;12278;53.058;9.028;2022-09-09T06:17:45;14.60;99.90
24103;DHT22;12278;53.058;9.028;2022-09-09T06:21:45;14.60;99.90
24103;DHT22;12278;53.058;9.028;2022-09-09T06:25:47;14.70;99.90
24103;DHT22;12278;53.058;9.028;2022-09-09T06:29:49;15.10;99.90
24103;DHT22;12278;53.058;9.028;2022-09-09T06:33:50;15.70;99.90
24103;DHT22;12278;53.058;9.028;2022-09-09T06:37:52;16.10;99.90
24103;DHT22;12278;53.058;9.028;2022-09-09T06:41:53;16.30;99.90
24103;DHT22;12278;53.058;9.028;2022-09-09T06:45:58;16.60;99.90
24103;DHT22;12278;53.058;9.028;2022-09-09T06:50:01;16.90;99.90
24103;DHT22;12278;53.058;9.028;2022-09-09T06:54:02;17.30;99.90
24103;DHT22;12278;53.058;9.028;2022-09-09T06:58:08;17.60;99.90
24103;DHT22;12278;53.058;9.028;2022-09-09T07:02:10;17.80;99.90
24103;DHT22;12278;53.058;9.028;2022-09-09T07:06:16;18.00;99.90
24103;DHT22;12278;53.058;9.028;2022-09-09T07:10:19;17.90;99.90
24103;DHT22;12278;53.058;9.028;2022-09-09T07:14:20;17.80;99.90
24103;DHT22;12278;53.058;9.028;2022-09-09T07:18:22;17.50;99.90
24103;DHT22;12278;53.058;9.028;2022-09-09T07:22:23;17.60;99.90
24103;DHT22;12278;53.058;9.028;2022-09-09T07:26:28;18.20;99.90
24103;DHT22;12278;53.058;9.028;2022-09-09T07:30:30;18.50;99.90
24103;DHT22;12278;53.058;9.028;2022-09-09T07:34:31;18.50;99.90
24103;DHT22;12278;53.058;9.028;2022-09-09T07:38:43;18.40;99.90
24103;DHT22;12278;53.058;9.028;2022-09-09T07:42:48;18.30;99.90
24103;DHT22;12278;53.058;9.028;2022-09-09T07:46:49;18.40;99.90
24103;DHT22;12278;53.058;9.028;2022-09-09T07:50:49;18.70;99.90
24103;DHT22;12278;53.058;9.028;2022-09-09T07:54:51;19.10;99.90
24103;DHT22;12278;53.058;9.028;2022-09-09T07:58:54;19.40;99.90
24103;DHT22;12278;53.058;9.028;2022-09-09T08:02:56;19.60;99.90
24103;DHT22;12278;53.058;9.028;2022-09-09T08:06:57;19.30;99.90
24103;DHT22;12278;53.058;9.028;2022-09-09T08:11:09;19.30;99.90
24103;DHT22;12278;53.058;9.028;2022-09-09T08:15:12;19.10;99.90
24103;DHT22;12278;53.058;9.028;2022-09-09T08:19:13;19.10;99.90
24103;DHT22;12278;53.058;9.028;2022-09-09T08:23:15;19.30;99.90
24103;DHT22;12278;53.058;9.028;2022-09-09T08:27:16;18.90;99.90
24103;DHT22;12278;53.058;9.028;2022-09-09T08:31:22;19.60;99.90
24103;DHT22;12278;53.058;9.028;2022-09-09T08:35:25;20.00;99.90
24103;DHT22;12278;53.058;9.028;2022-09-09T08:39:25;19.40;99.90
24103;DHT22;12278;53.058;9.028;2022-09-09T08:43:28;19.10;99.90
24103;DHT22;12278;53.058;9.028;2022-09-09T08:56:31;19.10;99.90
24103;DHT22;12278;53.058;9.028;2022-09-09T09:09:57;19.10;99.90
24103;DHT22;12278;53.058;9.028;2022-09-09T09:14:15;19.50;99.90
24103;DHT22;12278;53.058;9.028;2022-09-09T09:18:22;19.80;99.90
24103;DHT22;12278;53.058;9.028;2022-09-09T09:26:37;19.50;99.90
24103;DHT22;12278;53.058;9.028;2022-09-09T09:30:42;19.20;99.90
24103;DHT22;12278;53.058;9.028;2022-09-09T09:34:55;19.10;99.90
24103;DHT22;12278;53.058;9.028;2022-09-09T09:38:58;19.30;99.90
24103;DHT22;12278;53.058;9.028;2022-09-09T09:43:01;19.60;99.90
24103;DHT22;12278;53.058;9.028;2022-09-09T09:47:21;19.40;99.90
24103;DHT22;12278;53.058;9.028;2022-09-09T09:51:24;19.70;99.90
24103;DHT22;12278;53.058;9.028;2022-09-09T09:55:29;20.00;99.90
24103;DHT22;12278;53.058;9.028;2022-09-09T09:59:34;20.40;99.90
24103;DHT22;12278;53.058;9.028;2022-09-09T10:03:36;20.80;99.90
24103;DHT22;12278;53.058;9.028;2022-09-09T10:07:39;21.00;99.90
24103;DHT22;12278;53.058;9.028;2022-09-09T10:26:03;20.60;99.90
24103;DHT22;12278;53.058;9.028;2022-09-09T10:34:56;20.70;99.90
24103;DHT22;12278;53.058;9.028;2022-09-09T10:39:39;20.50;99.90
24103;DHT22;12278;53.058;9.028;2022-09-09T10:53:21;19.80;99.90
24103;DHT22;12278;53.058;9.028;2022-09-09T10:58:01;19.70;99.90
24103;DHT22;12278;53.058;9.028;2022-09-09T11:06:10;19.70;99.90
24103;DHT22;12278;53.058;9.028;2022-09-09T11:14:48;20.10;99.90
24103;DHT22;12278;53.058;9.028;2022-09-09T11:18:57;20.30;99.90
24103;DHT22;12278;53.058;9.028;2022-09-09T11:23:09;20.50;99.90
24103;DHT22;12278;53.058;9.028;2022-09-09T11:27:22;20.40;99.90
24103;DHT22;12278;53.058;9.028;2022-09-09T11:31:35;20.20;99.90
24103;DHT22;12278;53.058;9.028;2022-09-09T11:44:28;19.80;99.90
24103;DHT22;12278;53.058;9.028;2022-09-09T11:52:45;19.90;99.90
24103;DHT22;12278;53.058;9.028;2022-09-09T11:56:47;20.00;99.90
24103;DHT22;12278;53.058;9.028;2022-09-09T12:00:48;19.90;99.90
24103;DHT22;12278;53.058;9.028;2022-09-09T12:09:16;19.30;99.90
24103;DHT22;12278;53.058;9.028;2022-09-09T12:13:24;19.00;99.90
24103;DHT22;12278;53.058;9.028;2022-09-09T12:17:29;18.80;99.90
24103;DHT22;12278;53.058;9.028;2022-09-09T12:21:36;18.30;99.90
24103;DHT22;12278;53.058;9.028;2022-09-09T12:30:04;17.60;99.90
24103;DHT22;12278;53.058;9.028;2022-09-09T12:42:32;17.60;99.90
24103;DHT22;12278;53.058;9.028;2022-09-09T12:46:42;17.40;99.90
24103;DHT22;12278;53.058;9.028;2022-09-09T12:50:49;17.30;99.90
24103;DHT22;12278;53.058;9.028;2022-09-09T12:54:52;17.20;99.90
24103;DHT22;12278;53.058;9.028;2022-09-09T12:58:55;17.10;99.90
24103;DHT22;12278;53.058;9.028;2022-09-09T13:03:00;17.10;99.90
24103;DHT22;12278;53.058;9.028;2022-09-09T13:07:07;17.20;99.90
24103;DHT22;12278;53.058;9.028;2022-09-09T13:11:17;17.20;99.90
24103;DHT22;12278;53.058;9.028;2022-09-09T13:15:24;17.30;99.90
24103;DHT22;12278;53.058;9.028;2022-09-09T13:19:32;17.30;99.90
24103;DHT22;12278;53.058;9.028;2022-09-09T13:23:37;17.40;99.90
24103;DHT22;12278;53.058;9.028;2022-09-09T13:27:41;17.60;99.90
24103;DHT22;12278;53.058;9.028;2022-09-09T13:31:53;17.80;99.90
24103;DHT22;12278;53.058;9.028;2022-09-09T13:36:11;18.40;99.90
24103;DHT22;12278;53.058;9.028;2022-09-09T13:40:21;19.40;99.90
24103;DHT22;12278;53.058;9.028;2022-09-09T13:44:26;19.80;99.90
24103;DHT22;12278;53.058;9.028;2022-09-09T13:48:30;19.70;99.90
24103;DHT22;12278;53.058;9.028;2022-09-09T13:52:32;19.50;99.90
24103;DHT22;12278;53.058;9.028;2022-09-09T13:56:33;19.40;99.90
24103;DHT22;12278;53.058;9.028;2022-09-09T14:00:35;19.40;99.90
24103;DHT22;12278;53.058;9.028;2022-09-09T14:04:36;19.20;99.90
24103;DHT22;12278;53.058;9.028;2022-09-09T14:08:37;19.00;99.90
24103;DHT22;12278;53.058;9.028;2022-09-09T14:12:38;18.70;99.90
24103;DHT22;12278;53.058;9.028;2022-09-09T14:16:39;18.60;99.90
24103;DHT22;12278;53.058;9.028;2022-09-09T14:20:40;18.50;99.90
24103;DHT22;12278;53.058;9.028;2022-09-09T14:24:41;18.40;99.90
24103;DHT22;12278;53.058;9.028;2022-09-09T14:28:42;18.30;99.90
24103;DHT22;12278;53.058;9.028;2022-09-09T14:32:43;18.20;99.90
24103;DHT22;12278;53.058;9.028;2022-09-09T14:36:44;18.00;99.90
24103;DHT22;12278;53.058;9.028;2022-09-09T14:40:45;17.80;99.90
24103;DHT22;12278;53.058;9.028;2022-09-09T14:44:47;17.70;99.90
24103;DHT22;12278;53.058;9.028;2022-09-09T14:48:48;17.60;99.90
24103;DHT22;12278;53.058;9.028;2022-09-09T14:52:49;17.50;99.90
24103;DHT22;12278;53.058;9.028;2022-09-09T14:56:51;17.40;99.90
24103;DHT22;12278;53.058;9.028;2022-09-09T15:00:51;17.30;99.90
24103;DHT22;12278;53.058;9.028;2022-09-09T15:04:53;17.30;99.90
24103;DHT22;12278;53.058;9.028;2022-09-09T15:08:57;17.20;99.90
24103;DHT22;12278;53.058;9.028;2022-09-09T15:12:58;17.20;99.90
24103;DHT22;12278;53.058;9.028;2022-09-09T15:16:58;17.20;99.90
24103;DHT22;12278;53.058;9.028;2022-09-09T15:20:59;17.10;99.90
24103;DHT22;12278;53.058;9.028;2022-09-09T15:25:03;17.00;99.90
24103;DHT22;12278;53.058;9.028;2022-09-09T15:29:06;17.00;99.90
24103;DHT22;12278;53.058;9.028;2022-09-09T15:33:08;17.00;99.90
24103;DHT22;12278;53.058;9.028;2022-09-09T15:37:12;16.90;99.90
24103;DHT22;12278;53.058;9.028;2022-09-09T15:41:16;16.80;99.90
24103;DHT22;12278;53.058;9.028;2022-09-09T15:45:18;16.80;99.90
24103;DHT22;12278;53.058;9.028;2022-09-09T15:49:21;16.70;99.90
24103;DHT22;12278;53.058;9.028;2022-09-09T15:53:26;16.50;99.90
24103;DHT22;12278;53.058;9.028;2022-09-09T15:57:26;16.40;99.90
24103;DHT22;12278;53.058;9.028;2022-09-09T16:01:28;16.40;99.90
24103;DHT22;12278;53.058;9.028;2022-09-09T16:05:33;16.40;99.90
24103;DHT22;12278;53.058;9.028;2022-09-09T16:09:36;16.40;99.90
24103;DHT22;12278;53.058;9.028;2022-09-09T16:13:37;16.50;99.90
24103;DHT22;12278;53.058;9.028;2022-09-09T16:17:38;16.40;99.90
24103;DHT22;12278;53.058;9.028;2022-09-09T16:21:44;16.40;99.90
24103;DHT22;12278;53.058;9.028;2022-09-09T16:25:55;16.30;99.90
24103;DHT22;12278;53.058;9.028;2022-09-09T16:29:56;16.30;99.90
24103;DHT22;12278;53.058;9.028;2022-09-09T16:33:57;16.30;99.90
24103;DHT22;12278;53.058;9.028;2022-09-09T16:37:59;16.30;99.90
24103;DHT22;12278;53.058;9.028;2022-09-09T16:42:00;16.30;99.90
24103;DHT22;12278;53.058;9.028;2022-09-09T16:46:03;16.30;99.90
24103;DHT22;12278;53.058;9.028;2022-09-09T16:50:05;16.40;99.90
24103;DHT22;12278;53.058;9.028;2022-09-09T16:54:07;16.30;99.90
24103;DHT22;12278;53.058;9.028;2022-09-09T16:58:10;16.30;99.90
24103;DHT22;12278;53.058;9.028;2022-09-09T17:02:11;16.30;99.90
24103;DHT22;12278;53.058;9.028;2022-09-09T17:06:14;16.20;99.90
24103;DHT22;12278;53.058;9.028;2022-09-09T17:10:15;16.20;99.90
24103;DHT22;12278;53.058;9.028;2022-09-09T17:14:18;16.20;99.90
24103;DHT22;12278;53.058;9.028;2022-09-09T17:18:21;16.30;99.90
24103;DHT22;12278;53.058;9.028;2022-09-09T17:22:22;16.30;99.90
24103;DHT22;12278;53.058;9.028;2022-09-09T17:26:27;16.30;99.90
24103;DHT22;12278;53.058;9.028;2022-09-09T17:30:33;16.10;99.90
24103;DHT22;12278;53.058;9.028;2022-09-09T17:34:35;16.10;99.90
24103;DHT22;12278;53.058;9.028;2022-09-09T17:38:36;16.00;99.90
24103;DHT22;12278;53.058;9.028;2022-09-09T17:42:38;15.80;99.90
24103;DHT22;12278;53.058;9.028;2022-09-09T17:46:40;15.90;99.90
24103;DHT22;12278;53.058;9.028;2022-09-09T17:50:43;15.80;99.90
24103;DHT22;12278;53.058;9.028;2022-09-09T17:54:43;15.70;99.90
24103;DHT22;12278;53.058;9.028;2022-09-09T17:58:44;15.70;99.90
24103;DHT22;12278;53.058;9.028;2022-09-09T18:02:45;15.70;99.90
24103;DHT22;12278;53.058;9.028;2022-09-09T18:06:47;15.60;99.90
24103;DHT22;12278;53.058;9.028;2022-09-09T18:10:52;15.70;99.90
24103;DHT22;12278;53.058;9.028;2022-09-09T18:14:54;15.60;99.90
24103;DHT22;12278;53.058;9.028;2022-09-09T18:18:56;15.60;99.90
24103;DHT22;12278;53.058;9.028;2022-09-09T18:22:59;15.60;99.90
24103;DHT22;12278;53.058;9.028;2022-09-09T18:27:00;15.60;99.90
24103;DHT22;12278;53.058;9.028;2022-09-09T18:31:05;15.60;99.90
24103;DHT22;12278;53.058;9.028;2022-09-09T18:35:07;15.70;99.90
24103;DHT22;12278;53.058;9.028;2022-09-09T18:39:08;15.60;99.90
24103;DHT22;12278;53.058;9.028;2022-09-09T18:43:11;15.60;99.90
24103;DHT22;12278;53.058;9.028;2022-09-09T18:47:12;15.60;99.90
24103;DHT22;12278;53.058;9.028;2022-09-09T18:51:16;15.60;99.90
24103;DHT22;12278;53.058;9.028;2022-09-09T18:55:19;15.60;99.90
24103;DHT22;12278;53.058;9.028;2022-09-09T18:59:22;15.70;99.90
24103;DHT22;12278;53.058;9.028;2022-09-09T19:03:24;15.50;99.90
24103;DHT22;12278;53.058;9.028;2022-09-09T19:07:26;15.70;99.90
24103;DHT22;12278;53.058;9.028;2022-09-09T19:11:27;15.70;99.90
24103;DHT22;12278;53.058;9.028;2022-09-09T19:15:28;15.70;99.90
24103;DHT22;12278;53.058;9.028;2022-09-09T19:19:30;15.60;99.90
24103;DHT22;12278;53.058;9.028;2022-09-09T19:23:32;15.70;99.90
24103;DHT22;12278;53.058;9.028;2022-09-09T19:27:33;15.70;99.90
24103;DHT22;12278;53.058;9.028;2022-09-09T19:31:34;15.70;99.90
24103;DHT22;12278;53.058;9.028;2022-09-09T19:35:36;15.60;99.90
24103;DHT22;12278;53.058;9.028;2022-09-09T19:39:36;15.50;99.90
24103;DHT22;12278;53.058;9.028;2022-09-09T19:43:40;15.40;99.90
24103;DHT22;12278;53.058;9.028;2022-09-09T19:47:41;15.40;99.90
24103;DHT22;12278;53.058;9.028;2022-09-09T19:51:43;15.40;99.90
24103;DHT22;12278;53.058;9.028;2022-09-09T19:55:44;15.40;99.90
24103;DHT22;12278;53.058;9.028;2022-09-09T19:59:45;15.40;99.90
24103;DHT22;12278;53.058;9.028;2022-09-09T20:03:48;15.40;99.90
24103;DHT22;12278;53.058;9.028;2022-09-09T20:07:52;15.50;99.90
24103;DHT22;12278;53.058;9.028;2022-09-09T20:11:53;15.50;99.90
24103;DHT22;12278;53.058;9.028;2022-09-09T20:15:58;15.50;99.90
24103;DHT22;12278;53.058;9.028;2022-09-09T20:20:00;15.50;99.90
24103;DHT22;12278;53.058;9.028;2022-09-09T20:24:06;15.40;99.90
24103;DHT22;12278;53.058;9.028;2022-09-09T20:28:08;15.40;99.90
24103;DHT22;12278;53.058;9.028;2022-09-09T20:32:09;15.30;99.90
24103;DHT22;12278;53.058;9.028;2022-09-09T20:36:16;15.30;99.90
24103;DHT22;12278;53.058;9.028;2022-09-09T20:40:21;15.30;99.90
24103;DHT22;12278;53.058;9.028;2022-09-09T20:44:23;15.20;99.90
24103;DHT22;12278;53.058;9.028;2022-09-09T20:48:24;15.20;99.90
24103;DHT22;12278;53.058;9.028;2022-09-09T20:52:25;15.20;99.90
24103;DHT22;12278;53.058;9.028;2022-09-09T20:56:33;15.20;99.90
24103;DHT22;12278;53.058;9.028;2022-09-09T21:00:40;15.10;99.90
24103;DHT22;12278;53.058;9.028;2022-09-09T21:04:40;15.10;99.90
24103;DHT22;12278;53.058;9.028;2022-09-09T21:08:43;15.10;99.90
24103;DHT22;12278;53.058;9.028;2022-09-09T21:12:45;15.10;99.90
24103;DHT22;12278;53.058;9.028;2022-09-09T21:16:46;15.10;99.90
24103;DHT22;12278;53.058;9.028;2022-09-09T21:20:47;15.00;99.90
24103;DHT22;12278;53.058;9.028;2022-09-09T21:24:48;15.00;99.90
24103;DHT22;12278;53.058;9.028;2022-09-09T21:28:50;14.90;99.90
24103;DHT22;12278;53.058;9.028;2022-09-09T21:32:51;14.90;99.90
24103;DHT22;12278;53.058;9.028;2022-09-09T21:36:51;14.90;99.90
24103;DHT22;12278;53.058;9.028;2022-09-09T21:40:52;14.90;99.90
24103;DHT22;12278;53.058;9.028;2022-09-09T21:44:53;14.90;99.90
24103;DHT22;12278;53.058;9.028;2022-09-09T21:48:55;14.90;99.90
24103;DHT22;12278;53.058;9.028;2022-09-09T21:52:57;14.90;99.90
24103;DHT22;12278;53.058;9.028;2022-09-09T21:56:57;14.90;99.90
24103;DHT22;12278;53.058;9.028;2022-09-09T22:00:58;14.80;99.90
24103;DHT22;12278;53.058;9.028;2022-09-09T22:04:59;14.80;99.90
24103;DHT22;12278;53.058;9.028;2022-09-09T22:09:00;14.80;99.90
24103;DHT22;12278;53.058;9.028;2022-09-09T22:13:03;14.90;99.90
24103;DHT22;12278;53.058;9.028;2022-09-09T22:17:04;14.90;99.90
24103;DHT22;12278;53.058;9.028;2022-09-09T22:21:09;15.00;99.90
24103;DHT22;12278;53.058;9.028;2022-09-09T22:25:12;15.00;99.90
24103;DHT22;12278;53.058;9.028;2022-09-09T22:29:12;15.00;99.90
24103;DHT22;12278;53.058;9.028;2022-09-09T22:33:13;15.00;99.90
24103;DHT22;12278;53.058;9.028;2022-09-09T22:37:14;15.20;99.90
24103;DHT22;12278;53.058;9.028;2022-09-09T22:41:15;15.10;99.90
24103;DHT22;12278;53.058;9.028;2022-09-09T22:45:16;15.20;99.90
24103;DHT22;12278;53.058;9.028;2022-09-09T22:49:17;15.20;99.90
24103;DHT22;12278;53.058;9.028;2022-09-09T22:53:17;15.20;99.90
24103;DHT22;12278;53.058;9.028;2022-09-09T22:57:19;15.10;99.90
24103;DHT22;12278;53.058;9.028;2022-09-09T23:01:20;15.10;99.90
24103;DHT22;12278;53.058;9.028;2022-09-09T23:05:21;15.10;99.90
24103;DHT22;12278;53.058;9.028;2022-09-09T23:09:25;15.10;99.90
24103;DHT22;12278;53.058;9.028;2022-09-09T23:13:26;15.10;99.90
24103;DHT22;12278;53.058;9.028;2022-09-09T23:17:31;15.10;99.90
24103;DHT22;12278;53.058;9.028;2022-09-09T23:21:33;15.10;99.90
24103;DHT22;12278;53.058;9.028;2022-09-09T23:25:35;15.10;99.90
24103;DHT22;12278;53.058;9.028;2022-09-09T23:29:36;15.20;99.90
24103;DHT22;12278;53.058;9.028;2022-09-09T23:33:36;15.10;99.90
24103;DHT22;12278;53.058;9.028;2022-09-09T23:37:38;15.10;99.90
24103;DHT22;12278;53.058;9.028;2022-09-09T23:41:39;15.10;99.90
24103;DHT22;12278;53.058;9.028;2022-09-09T23:45:41;15.10;99.90
24103;DHT22;12278;53.058;9.028;2022-09-09T23:49:41;15.10;99.90
24103;DHT22;12278;53.058;9.028;2022-09-09T23:53:46;15.00;99.90
24103;DHT22;12278;53.058;9.028;2022-09-09T23:57:50;15.00;99.90
